This is the latest recevied weather packets stored in our database for station/object YM2KV-13. If no packets are shown the sender has not sent any weather packets the latest 1 day(s).
| Time | Temp. | Humidity | Pressure | Rain* | Wind** | Luminosity | Snow |
|---|---|---|---|---|---|---|---|
| 1778050789 | 14.44° C | 77% | 1029 hPa | - | - | - | - |
| 1778050189 | 13.89° C | 80% | 1028.9 hPa | - | - | - | - |
| 1778049589 | 13.89° C | 80% | 1028.9 hPa | - | - | - | - |
| 1778048989 | 13.33° C | 85% | 1028.9 hPa | - | - | - | - |
| 1778048389 | 12.78° C | 86% | 1028.8 hPa | - | - | - | - |
| 1778047789 | 12.78° C | 88% | 1028.9 hPa | - | - | - | - |
| 1778047189 | 12.22° C | 89% | 1029 hPa | - | - | - | - |
| 1778046589 | 12.22° C | 90% | 1028.9 hPa | - | - | - | - |
| 1778045989 | 11.67° C | 92% | 1029 hPa | - | - | - | - |
| 1778045389 | 12.22° C | 92% | 1028.9 hPa | - | - | - | - |
| 1778044789 | 11.67° C | 94% | 1028.9 hPa | - | - | - | - |
| 1778044189 | 11.67° C | 95% | 1028.8 hPa | - | - | - | - |
| 1778043589 | 11.67° C | 94% | 1028.7 hPa | - | - | - | - |
| 1778042989 | 11.67° C | 95% | 1028.6 hPa | - | - | - | - |
| 1778042389 | 11.11° C | 97% | 1028.5 hPa | - | - | - | - |
| 1778041188 | 11.11° C | 98% | 1028.5 hPa | - | - | - | - |
| 1778040588 | 10.56° C | 98% | 1028.4 hPa | - | - | - | - |
| 1778038188 | 10.56° C | 99% | 1028.1 hPa | - | - | - | - |
| 1778037588 | 10.56° C | 99% | 1028 hPa | - | - | - | - |
| 1778036988 | 10.56° C | 99% | 1028 hPa | - | - | - | - |
| 1778036388 | 10.56° C | 99% | 1027.8 hPa | - | - | - | - |
| 1778035788 | 10.56° C | 98% | 1027.7 hPa | - | - | - | - |
| 1778035188 | 10.56° C | 99% | 1027.6 hPa | - | - | - | - |
| 1778034588 | 10.56° C | 99% | 1027.5 hPa | - | - | - | - |
| 1778033988 | 10.56° C | 98% | 1027.5 hPa | - | - | - | - |
* Rain since midnight (hover to see other rain measurements)
** Current wind speed in m/s (hover to see current wind gust speed)